Grande-Riviere, Canada
Current Conditions -  °F | °C
As of 4:00 AM on Sunday 26 Oct 2014 (Local Time) from CYGP Reporting Station
Light Rain Light Rain  
Wind Chill: 30°   Ceiling: 500
Heat Index: 36°   Visibility: 2mi
Dew Point: 36°   Wind: 7mph
Humidity: 100%   Direction: 270°W
Pressure: 29.47"   Gusts: NA
Location:  48.38°N, 64.5°W
Report Text: CYGP 260800Z 27006KT 2SM -RA BR OVC005 02/02 A2947 RMK FG2ST6 SLP981
Loading
Personal Weather Stations






























Interactive Weather Map
Tropical Storm Tracking
New forecast layout! Learn more

10-Day Weather Forecast

Advertisements
Track Severe Weather on mobile